sensor_id;sensor_type;location;lat;lon;timestamp;P1;durP1;ratioP1;P2;durP2;ratioP2
10831;SDS011;5469;48.574;8.768;2022-08-20T00:01:17;0.30;;;0.30;;
10831;SDS011;5469;48.574;8.768;2022-08-20T00:03:53;0.30;;;0.30;;
10831;SDS011;5469;48.574;8.768;2022-08-20T00:06:28;0.40;;;0.40;;
10831;SDS011;5469;48.574;8.768;2022-08-20T00:09:04;0.30;;;0.30;;
10831;SDS011;5469;48.574;8.768;2022-08-20T00:11:41;0.30;;;0.30;;
10831;SDS011;5469;48.574;8.768;2022-08-20T00:14:16;0.30;;;0.30;;
10831;SDS011;5469;48.574;8.768;2022-08-20T00:16:51;0.40;;;0.40;;
10831;SDS011;5469;48.574;8.768;2022-08-20T00:19:26;0.30;;;0.30;;
10831;SDS011;5469;48.574;8.768;2022-08-20T00:22:02;0.50;;;0.50;;
10831;SDS011;5469;48.574;8.768;2022-08-20T00:24:37;0.37;;;0.37;;
10831;SDS011;5469;48.574;8.768;2022-08-20T00:27:14;0.40;;;0.40;;
10831;SDS011;5469;48.574;8.768;2022-08-20T00:29:49;0.40;;;0.40;;
10831;SDS011;5469;48.574;8.768;2022-08-20T00:32:24;0.50;;;0.50;;
10831;SDS011;5469;48.574;8.768;2022-08-20T00:34:59;0.43;;;0.43;;
10831;SDS011;5469;48.574;8.768;2022-08-20T00:37:34;0.93;;;0.60;;
10831;SDS011;5469;48.574;8.768;2022-08-20T00:40:10;0.50;;;0.50;;
10831;SDS011;5469;48.574;8.768;2022-08-20T00:42:48;0.50;;;0.50;;
10831;SDS011;5469;48.574;8.768;2022-08-20T00:45:28;0.23;;;0.23;;
10831;SDS011;5469;48.574;8.768;2022-08-20T00:48:04;0.63;;;0.43;;
10831;SDS011;5469;48.574;8.768;2022-08-20T00:50:39;0.30;;;0.30;;
10831;SDS011;5469;48.574;8.768;2022-08-20T00:53:15;0.27;;;0.27;;
10831;SDS011;5469;48.574;8.768;2022-08-20T00:55:53;0.57;;;0.57;;
10831;SDS011;5469;48.574;8.768;2022-08-20T00:58:30;0.40;;;0.40;;
10831;SDS011;5469;48.574;8.768;2022-08-20T01:01:07;0.50;;;0.50;;
10831;SDS011;5469;48.574;8.768;2022-08-20T01:03:42;0.30;;;0.30;;
10831;SDS011;5469;48.574;8.768;2022-08-20T01:06:17;0.30;;;0.30;;
10831;SDS011;5469;48.574;8.768;2022-08-20T01:08:52;0.40;;;0.40;;
10831;SDS011;5469;48.574;8.768;2022-08-20T01:11:29;0.50;;;0.50;;
10831;SDS011;5469;48.574;8.768;2022-08-20T01:14:08;1.10;;;0.53;;
10831;SDS011;5469;48.574;8.768;2022-08-20T01:17:03;0.40;;;0.40;;
10831;SDS011;5469;48.574;8.768;2022-08-20T01:19:41;1.40;;;0.67;;
10831;SDS011;5469;48.574;8.768;2022-08-20T01:22:20;0.47;;;0.47;;
10831;SDS011;5469;48.574;8.768;2022-08-20T01:25:20;0.80;;;0.73;;
10831;SDS011;5469;48.574;8.768;2022-08-20T01:28:01;0.33;;;0.33;;
10831;SDS011;5469;48.574;8.768;2022-08-20T01:30:36;0.53;;;0.53;;
10831;SDS011;5469;48.574;8.768;2022-08-20T01:33:12;1.27;;;0.57;;
10831;SDS011;5469;48.574;8.768;2022-08-20T01:35:49;0.47;;;0.47;;
10831;SDS011;5469;48.574;8.768;2022-08-20T01:38:26;0.50;;;0.50;;
10831;SDS011;5469;48.574;8.768;2022-08-20T01:41:09;0.40;;;0.40;;
10831;SDS011;5469;48.574;8.768;2022-08-20T01:43:55;0.50;;;0.50;;
10831;SDS011;5469;48.574;8.768;2022-08-20T01:46:34;0.60;;;0.60;;
10831;SDS011;5469;48.574;8.768;2022-08-20T01:49:13;0.50;;;0.50;;
10831;SDS011;5469;48.574;8.768;2022-08-20T01:51:52;0.40;;;0.40;;
10831;SDS011;5469;48.574;8.768;2022-08-20T01:54:32;0.70;;;0.70;;
10831;SDS011;5469;48.574;8.768;2022-08-20T01:57:09;2.47;;;0.70;;
10831;SDS011;5469;48.574;8.768;2022-08-20T01:59:48;0.70;;;0.57;;
10831;SDS011;5469;48.574;8.768;2022-08-20T02:02:24;0.57;;;0.40;;
10831;SDS011;5469;48.574;8.768;2022-08-20T02:05:00;0.50;;;0.50;;
10831;SDS011;5469;48.574;8.768;2022-08-20T02:07:35;0.70;;;0.70;;
10831;SDS011;5469;48.574;8.768;2022-08-20T02:10:11;0.80;;;0.50;;
10831;SDS011;5469;48.574;8.768;2022-08-20T02:12:48;0.60;;;0.40;;
10831;SDS011;5469;48.574;8.768;2022-08-20T02:15:25;0.60;;;0.60;;
10831;SDS011;5469;48.574;8.768;2022-08-20T02:18:01;0.50;;;0.50;;
10831;SDS011;5469;48.574;8.768;2022-08-20T02:20:41;0.83;;;0.60;;
10831;SDS011;5469;48.574;8.768;2022-08-20T02:23:17;1.07;;;0.70;;
10831;SDS011;5469;48.574;8.768;2022-08-20T02:25:52;0.40;;;0.40;;
10831;SDS011;5469;48.574;8.768;2022-08-20T02:28:27;0.50;;;0.50;;
10831;SDS011;5469;48.574;8.768;2022-08-20T02:31:04;1.53;;;0.90;;
10831;SDS011;5469;48.574;8.768;2022-08-20T02:33:39;0.67;;;0.67;;
10831;SDS011;5469;48.574;8.768;2022-08-20T02:36:15;0.70;;;0.70;;
10831;SDS011;5469;48.574;8.768;2022-08-20T02:38:52;0.50;;;0.50;;
10831;SDS011;5469;48.574;8.768;2022-08-20T02:41:28;0.77;;;0.60;;
10831;SDS011;5469;48.574;8.768;2022-08-20T02:44:04;0.50;;;0.50;;
10831;SDS011;5469;48.574;8.768;2022-08-20T02:46:41;0.73;;;0.73;;
10831;SDS011;5469;48.574;8.768;2022-08-20T02:49:16;0.90;;;0.80;;
10831;SDS011;5469;48.574;8.768;2022-08-20T02:51:52;3.53;;;1.03;;
10831;SDS011;5469;48.574;8.768;2022-08-20T02:54:27;1.00;;;0.80;;
10831;SDS011;5469;48.574;8.768;2022-08-20T02:57:02;0.70;;;0.70;;
10831;SDS011;5469;48.574;8.768;2022-08-20T02:59:43;0.67;;;0.67;;
10831;SDS011;5469;48.574;8.768;2022-08-20T03:02:20;0.60;;;0.60;;
10831;SDS011;5469;48.574;8.768;2022-08-20T03:04:55;0.80;;;0.80;;
10831;SDS011;5469;48.574;8.768;2022-08-20T03:07:30;1.80;;;0.80;;
10831;SDS011;5469;48.574;8.768;2022-08-20T03:10:11;0.80;;;0.70;;
10831;SDS011;5469;48.574;8.768;2022-08-20T03:12:47;0.80;;;0.80;;
10831;SDS011;5469;48.574;8.768;2022-08-20T03:15:23;0.83;;;0.83;;
10831;SDS011;5469;48.574;8.768;2022-08-20T03:17:59;0.70;;;0.70;;
10831;SDS011;5469;48.574;8.768;2022-08-20T03:20:34;1.30;;;0.83;;
10831;SDS011;5469;48.574;8.768;2022-08-20T03:23:11;0.60;;;0.60;;
10831;SDS011;5469;48.574;8.768;2022-08-20T03:25:47;0.90;;;0.80;;
10831;SDS011;5469;48.574;8.768;2022-08-20T03:28:23;0.90;;;0.90;;
10831;SDS011;5469;48.574;8.768;2022-08-20T03:30:59;0.83;;;0.63;;
10831;SDS011;5469;48.574;8.768;2022-08-20T03:33:37;1.13;;;0.80;;
10831;SDS011;5469;48.574;8.768;2022-08-20T03:36:12;1.20;;;0.77;;
10831;SDS011;5469;48.574;8.768;2022-08-20T03:38:47;1.17;;;0.97;;
10831;SDS011;5469;48.574;8.768;2022-08-20T03:41:23;0.93;;;0.80;;
10831;SDS011;5469;48.574;8.768;2022-08-20T03:44:01;2.03;;;0.90;;
10831;SDS011;5469;48.574;8.768;2022-08-20T03:46:37;0.57;;;0.57;;
10831;SDS011;5469;48.574;8.768;2022-08-20T03:49:14;1.07;;;0.87;;
10831;SDS011;5469;48.574;8.768;2022-08-20T03:51:48;0.50;;;0.50;;
10831;SDS011;5469;48.574;8.768;2022-08-20T03:54:24;0.90;;;0.90;;
10831;SDS011;5469;48.574;8.768;2022-08-20T03:56:59;0.80;;;0.80;;
10831;SDS011;5469;48.574;8.768;2022-08-20T03:59:36;0.80;;;0.80;;
10831;SDS011;5469;48.574;8.768;2022-08-20T04:02:11;0.83;;;0.83;;
10831;SDS011;5469;48.574;8.768;2022-08-20T04:04:48;0.60;;;0.50;;
10831;SDS011;5469;48.574;8.768;2022-08-20T04:07:23;1.23;;;0.97;;
10831;SDS011;5469;48.574;8.768;2022-08-20T04:09:59;0.90;;;0.73;;
10831;SDS011;5469;48.574;8.768;2022-08-20T04:12:40;0.50;;;0.50;;
10831;SDS011;5469;48.574;8.768;2022-08-20T04:15:16;0.80;;;0.80;;
10831;SDS011;5469;48.574;8.768;2022-08-20T04:17:56;1.13;;;0.97;;
10831;SDS011;5469;48.574;8.768;2022-08-20T04:20:34;0.70;;;0.60;;
10831;SDS011;5469;48.574;8.768;2022-08-20T04:23:11;1.00;;;0.90;;
10831;SDS011;5469;48.574;8.768;2022-08-20T04:25:47;0.87;;;0.77;;
10831;SDS011;5469;48.574;8.768;2022-08-20T04:28:23;0.70;;;0.70;;
10831;SDS011;5469;48.574;8.768;2022-08-20T04:30:59;2.40;;;0.77;;
10831;SDS011;5469;48.574;8.768;2022-08-20T04:33:36;0.93;;;0.80;;
10831;SDS011;5469;48.574;8.768;2022-08-20T04:36:15;0.90;;;0.90;;
10831;SDS011;5469;48.574;8.768;2022-08-20T04:38:50;0.70;;;0.70;;
10831;SDS011;5469;48.574;8.768;2022-08-20T04:41:25;1.17;;;0.77;;
10831;SDS011;5469;48.574;8.768;2022-08-20T04:44:02;0.73;;;0.73;;
10831;SDS011;5469;48.574;8.768;2022-08-20T04:46:37;0.73;;;0.73;;
10831;SDS011;5469;48.574;8.768;2022-08-20T04:49:14;0.80;;;0.80;;
10831;SDS011;5469;48.574;8.768;2022-08-20T04:51:50;0.60;;;0.60;;
10831;SDS011;5469;48.574;8.768;2022-08-20T04:54:26;0.97;;;0.87;;
10831;SDS011;5469;48.574;8.768;2022-08-20T04:57:02;1.07;;;0.97;;
10831;SDS011;5469;48.574;8.768;2022-08-20T04:59:38;1.07;;;0.97;;
10831;SDS011;5469;48.574;8.768;2022-08-20T05:02:13;0.90;;;0.90;;
10831;SDS011;5469;48.574;8.768;2022-08-20T05:04:49;0.67;;;0.67;;
10831;SDS011;5469;48.574;8.768;2022-08-20T05:07:25;1.20;;;1.10;;
10831;SDS011;5469;48.574;8.768;2022-08-20T05:10:02;1.23;;;1.13;;
10831;SDS011;5469;48.574;8.768;2022-08-20T05:12:38;1.03;;;0.90;;
10831;SDS011;5469;48.574;8.768;2022-08-20T05:15:14;1.77;;;1.00;;
10831;SDS011;5469;48.574;8.768;2022-08-20T05:17:52;0.93;;;0.80;;
10831;SDS011;5469;48.574;8.768;2022-08-20T05:20:31;1.27;;;0.87;;
10831;SDS011;5469;48.574;8.768;2022-08-20T05:23:12;1.10;;;1.00;;
10831;SDS011;5469;48.574;8.768;2022-08-20T05:25:49;1.10;;;1.00;;
10831;SDS011;5469;48.574;8.768;2022-08-20T05:28:25;0.83;;;0.83;;
10831;SDS011;5469;48.574;8.768;2022-08-20T05:31:04;1.37;;;0.90;;
10831;SDS011;5469;48.574;8.768;2022-08-20T05:33:40;0.83;;;0.83;;
10831;SDS011;5469;48.574;8.768;2022-08-20T05:36:15;0.87;;;0.87;;
10831;SDS011;5469;48.574;8.768;2022-08-20T05:38:52;1.20;;;1.00;;
10831;SDS011;5469;48.574;8.768;2022-08-20T05:41:28;1.00;;;0.90;;
10831;SDS011;5469;48.574;8.768;2022-08-20T05:44:03;1.30;;;1.17;;
10831;SDS011;5469;48.574;8.768;2022-08-20T05:46:44;1.90;;;1.17;;
10831;SDS011;5469;48.574;8.768;2022-08-20T05:49:20;0.77;;;0.77;;
10831;SDS011;5469;48.574;8.768;2022-08-20T05:51:56;0.80;;;0.80;;
10831;SDS011;5469;48.574;8.768;2022-08-20T05:54:32;1.00;;;0.90;;
10831;SDS011;5469;48.574;8.768;2022-08-20T05:57:08;1.40;;;1.10;;
10831;SDS011;5469;48.574;8.768;2022-08-20T05:59:44;1.00;;;1.00;;
10831;SDS011;5469;48.574;8.768;2022-08-20T06:02:20;1.23;;;1.00;;
10831;SDS011;5469;48.574;8.768;2022-08-20T06:05:13;2.00;;;1.23;;
10831;SDS011;5469;48.574;8.768;2022-08-20T06:07:48;1.27;;;1.10;;
10831;SDS011;5469;48.574;8.768;2022-08-20T06:10:25;0.90;;;0.90;;
10831;SDS011;5469;48.574;8.768;2022-08-20T06:13:00;1.00;;;0.90;;
10831;SDS011;5469;48.574;8.768;2022-08-20T06:15:36;0.70;;;0.70;;
10831;SDS011;5469;48.574;8.768;2022-08-20T06:18:12;1.20;;;1.10;;
10831;SDS011;5469;48.574;8.768;2022-08-20T06:20:47;0.87;;;0.83;;
10831;SDS011;5469;48.574;8.768;2022-08-20T06:23:22;2.63;;;1.30;;
10831;SDS011;5469;48.574;8.768;2022-08-20T06:25:59;1.00;;;1.00;;
10831;SDS011;5469;48.574;8.768;2022-08-20T06:28:34;1.17;;;1.07;;
10831;SDS011;5469;48.574;8.768;2022-08-20T06:31:09;3.83;;;1.27;;
10831;SDS011;5469;48.574;8.768;2022-08-20T06:33:45;1.90;;;1.27;;
10831;SDS011;5469;48.574;8.768;2022-08-20T06:36:20;1.20;;;1.10;;
10831;SDS011;5469;48.574;8.768;2022-08-20T06:38:55;1.47;;;1.30;;
10831;SDS011;5469;48.574;8.768;2022-08-20T06:41:32;1.03;;;0.93;;
10831;SDS011;5469;48.574;8.768;2022-08-20T06:44:07;1.23;;;1.13;;
10831;SDS011;5469;48.574;8.768;2022-08-20T06:46:42;1.07;;;1.00;;
10831;SDS011;5469;48.574;8.768;2022-08-20T06:49:18;1.30;;;1.20;;
10831;SDS011;5469;48.574;8.768;2022-08-20T06:51:53;2.27;;;1.20;;
10831;SDS011;5469;48.574;8.768;2022-08-20T06:54:28;0.87;;;0.87;;
10831;SDS011;5469;48.574;8.768;2022-08-20T06:57:04;1.23;;;1.13;;
10831;SDS011;5469;48.574;8.768;2022-08-20T06:59:40;1.73;;;1.13;;
10831;SDS011;5469;48.574;8.768;2022-08-20T07:02:15;0.90;;;0.90;;
10831;SDS011;5469;48.574;8.768;2022-08-20T07:04:50;1.57;;;1.20;;
10831;SDS011;5469;48.574;8.768;2022-08-20T07:07:26;1.50;;;1.20;;
10831;SDS011;5469;48.574;8.768;2022-08-20T07:10:02;1.47;;;1.33;;
10831;SDS011;5469;48.574;8.768;2022-08-20T07:12:40;1.63;;;1.40;;
10831;SDS011;5469;48.574;8.768;2022-08-20T07:15:18;2.27;;;1.23;;
10831;SDS011;5469;48.574;8.768;2022-08-20T07:17:57;1.73;;;1.20;;
10831;SDS011;5469;48.574;8.768;2022-08-20T07:20:35;1.63;;;1.20;;
10831;SDS011;5469;48.574;8.768;2022-08-20T07:23:11;2.73;;;1.33;;
10831;SDS011;5469;48.574;8.768;2022-08-20T07:25:46;1.60;;;1.40;;
10831;SDS011;5469;48.574;8.768;2022-08-20T07:28:24;1.60;;;1.40;;
10831;SDS011;5469;48.574;8.768;2022-08-20T07:31:00;2.27;;;1.30;;
10831;SDS011;5469;48.574;8.768;2022-08-20T07:33:54;1.30;;;1.20;;
10831;SDS011;5469;48.574;8.768;2022-08-20T07:36:29;1.17;;;1.00;;
10831;SDS011;5469;48.574;8.768;2022-08-20T07:39:04;1.10;;;1.00;;
10831;SDS011;5469;48.574;8.768;2022-08-20T07:41:39;1.40;;;1.30;;
10831;SDS011;5469;48.574;8.768;2022-08-20T07:44:16;1.30;;;1.10;;
10831;SDS011;5469;48.574;8.768;2022-08-20T07:46:52;2.03;;;1.30;;
10831;SDS011;5469;48.574;8.768;2022-08-20T07:49:27;1.20;;;1.10;;
10831;SDS011;5469;48.574;8.768;2022-08-20T07:52:02;1.60;;;1.47;;
10831;SDS011;5469;48.574;8.768;2022-08-20T07:54:38;2.47;;;1.30;;
10831;SDS011;5469;48.574;8.768;2022-08-20T07:57:14;2.67;;;1.47;;
10831;SDS011;5469;48.574;8.768;2022-08-20T07:59:51;1.90;;;0.98;;
10831;SDS011;5469;48.574;8.768;2022-08-20T08:02:31;1.38;;;0.98;;
10831;SDS011;5469;48.574;8.768;2022-08-20T08:05:06;1.57;;;1.40;;
10831;SDS011;5469;48.574;8.768;2022-08-20T08:07:41;1.75;;;1.05;;
10831;SDS011;5469;48.574;8.768;2022-08-20T08:10:19;1.75;;;1.17;;
10831;SDS011;5469;48.574;8.768;2022-08-20T08:12:57;1.77;;;1.17;;
10831;SDS011;5469;48.574;8.768;2022-08-20T08:15:35;2.28;;;1.27;;
10831;SDS011;5469;48.574;8.768;2022-08-20T08:18:15;0.95;;;0.80;;
10831;SDS011;5469;48.574;8.768;2022-08-20T08:20:55;1.17;;;1.08;;
10831;SDS011;5469;48.574;8.768;2022-08-20T08:23:30;1.17;;;1.08;;
10831;SDS011;5469;48.574;8.768;2022-08-20T08:26:06;1.13;;;1.00;;
10831;SDS011;5469;48.574;8.768;2022-08-20T08:28:41;1.10;;;1.10;;
10831;SDS011;5469;48.574;8.768;2022-08-20T08:31:19;314.80;;;120.65;;
10831;SDS011;5469;48.574;8.768;2022-08-20T08:33:56;295.63;;;122.50;;
10831;SDS011;5469;48.574;8.768;2022-08-20T08:36:31;149.02;;;62.80;;
10831;SDS011;5469;48.574;8.768;2022-08-20T08:39:06;80.90;;;34.55;;
10831;SDS011;5469;48.574;8.768;2022-08-20T08:41:42;55.28;;;21.20;;
10831;SDS011;5469;48.574;8.768;2022-08-20T08:44:22;28.58;;;13.77;;
10831;SDS011;5469;48.574;8.768;2022-08-20T08:47:02;18.33;;;8.93;;
10831;SDS011;5469;48.574;8.768;2022-08-20T08:49:49;8.80;;;4.65;;
10831;SDS011;5469;48.574;8.768;2022-08-20T08:52:25;6.30;;;3.28;;
10831;SDS011;5469;48.574;8.768;2022-08-20T08:55:05;3.58;;;1.83;;
10831;SDS011;5469;48.574;8.768;2022-08-20T08:57:42;4.43;;;1.92;;
10831;SDS011;5469;48.574;8.768;2022-08-20T09:00:19;2.00;;;1.58;;
10831;SDS011;5469;48.574;8.768;2022-08-20T09:02:57;1.77;;;1.05;;
10831;SDS011;5469;48.574;8.768;2022-08-20T09:05:39;1.73;;;1.20;;
10831;SDS011;5469;48.574;8.768;2022-08-20T09:08:18;1.17;;;0.70;;
10831;SDS011;5469;48.574;8.768;2022-08-20T09:11:02;1.15;;;1.05;;
10831;SDS011;5469;48.574;8.768;2022-08-20T09:13:39;0.77;;;0.77;;
10831;SDS011;5469;48.574;8.768;2022-08-20T09:16:15;2.13;;;1.00;;
10831;SDS011;5469;48.574;8.768;2022-08-20T09:18:51;1.00;;;0.85;;
10831;SDS011;5469;48.574;8.768;2022-08-20T09:21:26;1.00;;;0.90;;
10831;SDS011;5469;48.574;8.768;2022-08-20T09:24:02;0.73;;;0.73;;
10831;SDS011;5469;48.574;8.768;2022-08-20T09:26:37;1.20;;;1.05;;
10831;SDS011;5469;48.574;8.768;2022-08-20T09:29:12;0.57;;;0.57;;
10831;SDS011;5469;48.574;8.768;2022-08-20T09:31:47;0.98;;;0.93;;
10831;SDS011;5469;48.574;8.768;2022-08-20T09:34:23;0.82;;;0.80;;
10831;SDS011;5469;48.574;8.768;2022-08-20T09:36:59;0.80;;;0.80;;
10831;SDS011;5469;48.574;8.768;2022-08-20T09:39:34;1.00;;;0.90;;
10831;SDS011;5469;48.574;8.768;2022-08-20T09:42:10;1.00;;;0.90;;
10831;SDS011;5469;48.574;8.768;2022-08-20T09:44:48;0.60;;;0.60;;
10831;SDS011;5469;48.574;8.768;2022-08-20T09:47:24;0.95;;;0.73;;
10831;SDS011;5469;48.574;8.768;2022-08-20T09:50:00;1.20;;;1.10;;
10831;SDS011;5469;48.574;8.768;2022-08-20T09:52:37;0.68;;;0.68;;
10831;SDS011;5469;48.574;8.768;2022-08-20T09:55:16;1.27;;;0.70;;
10831;SDS011;5469;48.574;8.768;2022-08-20T09:57:54;0.60;;;0.60;;
10831;SDS011;5469;48.574;8.768;2022-08-20T10:00:29;0.80;;;0.68;;
10831;SDS011;5469;48.574;8.768;2022-08-20T10:03:04;0.70;;;0.70;;
10831;SDS011;5469;48.574;8.768;2022-08-20T10:05:41;0.65;;;0.55;;
10831;SDS011;5469;48.574;8.768;2022-08-20T10:08:16;0.45;;;0.45;;
10831;SDS011;5469;48.574;8.768;2022-08-20T10:10:51;0.60;;;0.60;;
10831;SDS011;5469;48.574;8.768;2022-08-20T10:13:26;0.65;;;0.65;;
10831;SDS011;5469;48.574;8.768;2022-08-20T10:16:01;0.70;;;0.70;;
10831;SDS011;5469;48.574;8.768;2022-08-20T10:18:37;0.70;;;0.70;;
10831;SDS011;5469;48.574;8.768;2022-08-20T10:21:14;0.50;;;0.50;;
10831;SDS011;5469;48.574;8.768;2022-08-20T10:23:50;1.88;;;0.55;;
10831;SDS011;5469;48.574;8.768;2022-08-20T10:26:25;0.45;;;0.40;;
10831;SDS011;5469;48.574;8.768;2022-08-20T10:29:01;1.20;;;0.68;;
10831;SDS011;5469;48.574;8.768;2022-08-20T10:31:36;0.50;;;0.50;;
10831;SDS011;5469;48.574;8.768;2022-08-20T10:34:11;0.70;;;0.57;;
10831;SDS011;5469;48.574;8.768;2022-08-20T10:36:47;0.52;;;0.52;;
10831;SDS011;5469;48.574;8.768;2022-08-20T10:39:22;0.30;;;0.30;;
10831;SDS011;5469;48.574;8.768;2022-08-20T10:41:57;0.30;;;0.30;;
10831;SDS011;5469;48.574;8.768;2022-08-20T10:44:32;0.30;;;0.30;;
10831;SDS011;5469;48.574;8.768;2022-08-20T10:47:15;0.10;;;0.10;;
10831;SDS011;5469;48.574;8.768;2022-08-20T10:49:54;0.20;;;0.20;;
10831;SDS011;5469;48.574;8.768;2022-08-20T10:52:33;0.10;;;0.10;;
10831;SDS011;5469;48.574;8.768;2022-08-20T10:55:09;0.30;;;0.30;;
10831;SDS011;5469;48.574;8.768;2022-08-20T10:57:44;0.68;;;0.20;;
10831;SDS011;5469;48.574;8.768;2022-08-20T11:00:19;0.17;;;0.17;;
10831;SDS011;5469;48.574;8.768;2022-08-20T11:02:54;0.20;;;0.20;;
10831;SDS011;5469;48.574;8.768;2022-08-20T11:05:29;0.30;;;0.30;;
10831;SDS011;5469;48.574;8.768;2022-08-20T11:08:05;0.13;;;0.13;;
10831;SDS011;5469;48.574;8.768;2022-08-20T11:10:40;0.20;;;0.20;;
10831;SDS011;5469;48.574;8.768;2022-08-20T11:13:16;0.20;;;0.20;;
10831;SDS011;5469;48.574;8.768;2022-08-20T11:15:51;0.20;;;0.20;;
10831;SDS011;5469;48.574;8.768;2022-08-20T11:18:26;0.20;;;0.20;;
10831;SDS011;5469;48.574;8.768;2022-08-20T11:21:01;0.30;;;0.10;;
10831;SDS011;5469;48.574;8.768;2022-08-20T11:23:39;0.20;;;0.20;;
10831;SDS011;5469;48.574;8.768;2022-08-20T11:26:17;0.25;;;0.25;;
10831;SDS011;5469;48.574;8.768;2022-08-20T11:28:56;0.10;;;0.10;;
10831;SDS011;5469;48.574;8.768;2022-08-20T11:31:31;0.22;;;0.22;;
10831;SDS011;5469;48.574;8.768;2022-08-20T11:34:06;0.20;;;0.20;;
10831;SDS011;5469;48.574;8.768;2022-08-20T11:36:41;0.20;;;0.20;;
10831;SDS011;5469;48.574;8.768;2022-08-20T11:39:19;0.30;;;0.30;;
10831;SDS011;5469;48.574;8.768;2022-08-20T11:41:55;0.32;;;0.25;;
10831;SDS011;5469;48.574;8.768;2022-08-20T11:44:30;0.30;;;0.30;;
10831;SDS011;5469;48.574;8.768;2022-08-20T11:47:05;0.45;;;0.28;;
10831;SDS011;5469;48.574;8.768;2022-08-20T11:49:55;0.38;;;0.38;;
10831;SDS011;5469;48.574;8.768;2022-08-20T11:52:31;0.20;;;0.20;;
10831;SDS011;5469;48.574;8.768;2022-08-20T11:55:09;0.22;;;0.22;;
10831;SDS011;5469;48.574;8.768;2022-08-20T11:57:46;0.45;;;0.32;;
10831;SDS011;5469;48.574;8.768;2022-08-20T12:00:21;0.10;;;0.10;;
10831;SDS011;5469;48.574;8.768;2022-08-20T12:02:58;0.20;;;0.20;;
10831;SDS011;5469;48.574;8.768;2022-08-20T12:05:35;0.98;;;0.50;;
10831;SDS011;5469;48.574;8.768;2022-08-20T12:08:10;0.50;;;0.50;;
10831;SDS011;5469;48.574;8.768;2022-08-20T12:10:48;0.20;;;0.20;;
10831;SDS011;5469;48.574;8.768;2022-08-20T12:13:24;0.30;;;0.30;;
10831;SDS011;5469;48.574;8.768;2022-08-20T12:16:01;0.60;;;0.40;;
10831;SDS011;5469;48.574;8.768;2022-08-20T12:18:37;0.40;;;0.40;;
10831;SDS011;5469;48.574;8.768;2022-08-20T12:21:14;0.45;;;0.30;;
10831;SDS011;5469;48.574;8.768;2022-08-20T12:23:49;0.82;;;0.45;;
10831;SDS011;5469;48.574;8.768;2022-08-20T12:26:26;0.38;;;0.30;;
10831;SDS011;5469;48.574;8.768;2022-08-20T12:29:01;0.30;;;0.30;;
10831;SDS011;5469;48.574;8.768;2022-08-20T12:31:37;0.30;;;0.30;;
10831;SDS011;5469;48.574;8.768;2022-08-20T12:34:14;0.40;;;0.40;;
10831;SDS011;5469;48.574;8.768;2022-08-20T12:36:58;0.82;;;0.60;;
10831;SDS011;5469;48.574;8.768;2022-08-20T12:39:33;0.55;;;0.55;;
10831;SDS011;5469;48.574;8.768;2022-08-20T12:42:14;0.60;;;0.60;;
10831;SDS011;5469;48.574;8.768;2022-08-20T12:44:50;0.63;;;0.63;;
10831;SDS011;5469;48.574;8.768;2022-08-20T12:47:27;0.52;;;0.52;;
10831;SDS011;5469;48.574;8.768;2022-08-20T12:50:05;0.93;;;0.40;;
10831;SDS011;5469;48.574;8.768;2022-08-20T12:52:42;0.25;;;0.25;;
10831;SDS011;5469;48.574;8.768;2022-08-20T12:55:18;0.30;;;0.30;;
10831;SDS011;5469;48.574;8.768;2022-08-20T12:57:56;0.40;;;0.40;;
10831;SDS011;5469;48.574;8.768;2022-08-20T13:00:35;0.30;;;0.30;;
10831;SDS011;5469;48.574;8.768;2022-08-20T13:03:14;0.70;;;0.40;;
10831;SDS011;5469;48.574;8.768;2022-08-20T13:05:50;0.35;;;0.35;;
10831;SDS011;5469;48.574;8.768;2022-08-20T13:08:27;0.40;;;0.40;;
10831;SDS011;5469;48.574;8.768;2022-08-20T13:11:02;0.30;;;0.30;;
10831;SDS011;5469;48.574;8.768;2022-08-20T13:13:39;0.43;;;0.43;;
10831;SDS011;5469;48.574;8.768;2022-08-20T13:16:17;0.20;;;0.20;;
10831;SDS011;5469;48.574;8.768;2022-08-20T13:18:52;0.50;;;0.40;;
10831;SDS011;5469;48.574;8.768;2022-08-20T13:21:27;0.35;;;0.35;;
10831;SDS011;5469;48.574;8.768;2022-08-20T13:24:02;0.30;;;0.30;;
10831;SDS011;5469;48.574;8.768;2022-08-20T13:26:38;0.20;;;0.20;;
10831;SDS011;5469;48.574;8.768;2022-08-20T13:29:15;0.52;;;0.30;;
10831;SDS011;5469;48.574;8.768;2022-08-20T13:31:51;0.17;;;0.17;;
10831;SDS011;5469;48.574;8.768;2022-08-20T13:34:26;0.20;;;0.20;;
10831;SDS011;5469;48.574;8.768;2022-08-20T13:37:02;0.95;;;0.40;;
10831;SDS011;5469;48.574;8.768;2022-08-20T13:39:44;0.28;;;0.28;;
10831;SDS011;5469;48.574;8.768;2022-08-20T13:42:20;0.20;;;0.20;;
10831;SDS011;5469;48.574;8.768;2022-08-20T13:44:57;0.20;;;0.20;;
10831;SDS011;5469;48.574;8.768;2022-08-20T13:47:33;0.20;;;0.20;;
10831;SDS011;5469;48.574;8.768;2022-08-20T13:50:11;0.10;;;0.10;;
10831;SDS011;5469;48.574;8.768;2022-08-20T13:52:47;0.20;;;0.20;;
10831;SDS011;5469;48.574;8.768;2022-08-20T13:55:24;0.10;;;0.10;;
10831;SDS011;5469;48.574;8.768;2022-08-20T13:58:02;0.00;;;0.00;;
10831;SDS011;5469;48.574;8.768;2022-08-20T14:00:39;0.10;;;0.10;;
10831;SDS011;5469;48.574;8.768;2022-08-20T14:03:16;0.10;;;0.10;;
10831;SDS011;5469;48.574;8.768;2022-08-20T14:05:51;0.20;;;0.20;;
10831;SDS011;5469;48.574;8.768;2022-08-20T14:08:26;0.10;;;0.10;;
10831;SDS011;5469;48.574;8.768;2022-08-20T14:11:01;0.10;;;0.10;;
10831;SDS011;5469;48.574;8.768;2022-08-20T14:13:37;0.40;;;0.30;;
10831;SDS011;5469;48.574;8.768;2022-08-20T14:16:13;0.10;;;0.10;;
10831;SDS011;5469;48.574;8.768;2022-08-20T14:18:50;0.20;;;0.20;;
10831;SDS011;5469;48.574;8.768;2022-08-20T14:21:26;0.20;;;0.20;;
10831;SDS011;5469;48.574;8.768;2022-08-20T14:24:02;0.13;;;0.13;;
10831;SDS011;5469;48.574;8.768;2022-08-20T14:26:37;0.10;;;0.10;;
10831;SDS011;5469;48.574;8.768;2022-08-20T14:29:12;0.20;;;0.20;;
10831;SDS011;5469;48.574;8.768;2022-08-20T14:31:53;0.00;;;0.00;;
10831;SDS011;5469;48.574;8.768;2022-08-20T14:34:28;0.10;;;0.10;;
10831;SDS011;5469;48.574;8.768;2022-08-20T14:37:11;0.13;;;0.13;;
10831;SDS011;5469;48.574;8.768;2022-08-20T14:39:49;0.05;;;0.05;;
10831;SDS011;5469;48.574;8.768;2022-08-20T14:42:27;0.00;;;0.00;;
10831;SDS011;5469;48.574;8.768;2022-08-20T14:45:03;0.10;;;0.10;;
10831;SDS011;5469;48.574;8.768;2022-08-20T14:47:41;0.15;;;0.15;;
10831;SDS011;5469;48.574;8.768;2022-08-20T14:50:18;0.10;;;0.10;;
10831;SDS011;5469;48.574;8.768;2022-08-20T14:52:55;0.10;;;0.10;;
10831;SDS011;5469;48.574;8.768;2022-08-20T14:55:33;0.10;;;0.10;;
10831;SDS011;5469;48.574;8.768;2022-08-20T14:58:10;0.17;;;0.17;;
10831;SDS011;5469;48.574;8.768;2022-08-20T15:00:47;0.00;;;0.00;;
10831;SDS011;5469;48.574;8.768;2022-08-20T15:03:23;0.10;;;0.10;;
10831;SDS011;5469;48.574;8.768;2022-08-20T15:06:01;0.17;;;0.17;;
10831;SDS011;5469;48.574;8.768;2022-08-20T15:08:37;0.10;;;0.00;;
10831;SDS011;5469;48.574;8.768;2022-08-20T15:11:12;0.17;;;0.17;;
10831;SDS011;5469;48.574;8.768;2022-08-20T15:13:46;0.10;;;0.10;;
10831;SDS011;5469;48.574;8.768;2022-08-20T15:16:21;0.10;;;0.10;;
10831;SDS011;5469;48.574;8.768;2022-08-20T15:18:58;0.00;;;0.00;;
10831;SDS011;5469;48.574;8.768;2022-08-20T15:21:34;0.08;;;0.08;;
10831;SDS011;5469;48.574;8.768;2022-08-20T15:24:09;0.10;;;0.10;;
10831;SDS011;5469;48.574;8.768;2022-08-20T15:26:44;0.30;;;0.20;;
10831;SDS011;5469;48.574;8.768;2022-08-20T15:29:19;0.03;;;0.03;;
10831;SDS011;5469;48.574;8.768;2022-08-20T15:31:54;0.20;;;0.13;;
10831;SDS011;5469;48.574;8.768;2022-08-20T15:34:30;0.20;;;0.20;;
10831;SDS011;5469;48.574;8.768;2022-08-20T15:37:06;0.10;;;0.10;;
10831;SDS011;5469;48.574;8.768;2022-08-20T15:39:44;0.10;;;0.10;;
10831;SDS011;5469;48.574;8.768;2022-08-20T15:42:21;0.20;;;0.10;;
10831;SDS011;5469;48.574;8.768;2022-08-20T15:44:57;0.88;;;0.28;;
10831;SDS011;5469;48.574;8.768;2022-08-20T15:47:33;0.10;;;0.10;;
10831;SDS011;5469;48.574;8.768;2022-08-20T15:50:12;0.15;;;0.15;;
10831;SDS011;5469;48.574;8.768;2022-08-20T15:52:51;0.10;;;0.10;;
10831;SDS011;5469;48.574;8.768;2022-08-20T15:55:33;0.00;;;0.00;;
10831;SDS011;5469;48.574;8.768;2022-08-20T15:58:16;0.28;;;0.20;;